sensor_id;sensor_type;location;lat;lon;timestamp;temperature;humidity
69731;SHT31;56996;48.138;11.538;2023-04-15T00:01:44;7.43;74.90
69731;SHT31;56996;48.138;11.538;2023-04-15T00:04:10;7.45;74.69
69731;SHT31;56996;48.138;11.538;2023-04-15T00:06:36;7.47;74.70
69731;SHT31;56996;48.138;11.538;2023-04-15T00:09:02;7.48;74.64
69731;SHT31;56996;48.138;11.538;2023-04-15T00:11:29;7.43;74.67
69731;SHT31;56996;48.138;11.538;2023-04-15T00:13:55;7.40;74.77
69731;SHT31;56996;48.138;11.538;2023-04-15T00:16:21;7.41;74.80
69731;SHT31;56996;48.138;11.538;2023-04-15T00:18:47;7.41;74.89
69731;SHT31;56996;48.138;11.538;2023-04-15T00:21:12;7.39;74.87
69731;SHT31;56996;48.138;11.538;2023-04-15T00:23:39;7.39;74.81
69731;SHT31;56996;48.138;11.538;2023-04-15T00:26:05;7.40;74.93
69731;SHT31;56996;48.138;11.538;2023-04-15T00:28:31;7.41;74.81
69731;SHT31;56996;48.138;11.538;2023-04-15T00:30:57;7.43;74.80
69731;SHT31;56996;48.138;11.538;2023-04-15T00:33:23;7.45;74.69
69731;SHT31;56996;48.138;11.538;2023-04-15T00:35:49;7.47;74.60
69731;SHT31;56996;48.138;11.538;2023-04-15T00:38:16;7.47;74.61
69731;SHT31;56996;48.138;11.538;2023-04-15T00:40:42;7.46;74.51
69731;SHT31;56996;48.138;11.538;2023-04-15T00:43:08;7.47;74.35
69731;SHT31;56996;48.138;11.538;2023-04-15T00:45:34;7.48;74.29
69731;SHT31;56996;48.138;11.538;2023-04-15T00:48:00;7.46;74.24
69731;SHT31;56996;48.138;11.538;2023-04-15T00:50:27;7.44;74.39
69731;SHT31;56996;48.138;11.538;2023-04-15T00:52:53;7.43;74.55
69731;SHT31;56996;48.138;11.538;2023-04-15T00:55:18;7.45;74.52
69731;SHT31;56996;48.138;11.538;2023-04-15T00:57:45;7.40;74.33
69731;SHT31;56996;48.138;11.538;2023-04-15T01:00:11;7.37;74.46
69731;SHT31;56996;48.138;11.538;2023-04-15T01:02:38;7.37;74.74
69731;SHT31;56996;48.138;11.538;2023-04-15T01:05:04;7.37;74.74
69731;SHT31;56996;48.138;11.538;2023-04-15T01:07:30;7.34;74.74
69731;SHT31;56996;48.138;11.538;2023-04-15T01:09:56;7.36;74.72
69731;SHT31;56996;48.138;11.538;2023-04-15T01:12:23;7.36;74.64
69731;SHT31;56996;48.138;11.538;2023-04-15T01:14:52;7.36;74.67
69731;SHT31;56996;48.138;11.538;2023-04-15T01:17:19;7.39;74.57
69731;SHT31;56996;48.138;11.538;2023-04-15T01:19:46;7.39;74.52
69731;SHT31;56996;48.138;11.538;2023-04-15T01:22:12;7.41;74.51
69731;SHT31;56996;48.138;11.538;2023-04-15T01:24:38;7.39;74.50
69731;SHT31;56996;48.138;11.538;2023-04-15T01:27:05;7.38;74.62
69731;SHT31;56996;48.138;11.538;2023-04-15T01:29:31;7.38;74.56
69731;SHT31;56996;48.138;11.538;2023-04-15T01:32:04;7.34;74.51
69731;SHT31;56996;48.138;11.538;2023-04-15T01:34:30;7.35;74.34
69731;SHT31;56996;48.138;11.538;2023-04-15T01:36:58;7.38;74.24
69731;SHT31;56996;48.138;11.538;2023-04-15T01:39:24;7.37;74.16
69731;SHT31;56996;48.138;11.538;2023-04-15T01:41:50;7.35;74.26
69731;SHT31;56996;48.138;11.538;2023-04-15T01:44:16;7.33;74.33
69731;SHT31;56996;48.138;11.538;2023-04-15T01:46:42;7.30;74.20
69731;SHT31;56996;48.138;11.538;2023-04-15T01:49:09;7.32;74.24
69731;SHT31;56996;48.138;11.538;2023-04-15T01:51:35;7.29;74.34
69731;SHT31;56996;48.138;11.538;2023-04-15T01:54:01;7.29;74.27
69731;SHT31;56996;48.138;11.538;2023-04-15T01:56:28;7.29;74.33
69731;SHT31;56996;48.138;11.538;2023-04-15T01:58:54;7.29;74.42
69731;SHT31;56996;48.138;11.538;2023-04-15T02:01:20;7.30;74.27
69731;SHT31;56996;48.138;11.538;2023-04-15T02:03:46;7.31;74.26
69731;SHT31;56996;48.138;11.538;2023-04-15T02:06:13;7.31;74.06
69731;SHT31;56996;48.138;11.538;2023-04-15T02:08:40;7.31;74.00
69731;SHT31;56996;48.138;11.538;2023-04-15T02:11:06;7.29;74.01
69731;SHT31;56996;48.138;11.538;2023-04-15T02:13:32;7.28;74.01
69731;SHT31;56996;48.138;11.538;2023-04-15T02:15:58;7.27;74.00
69731;SHT31;56996;48.138;11.538;2023-04-15T02:18:25;7.27;74.00
69731;SHT31;56996;48.138;11.538;2023-04-15T02:20:51;7.26;73.97
69731;SHT31;56996;48.138;11.538;2023-04-15T02:23:17;7.26;73.90
69731;SHT31;56996;48.138;11.538;2023-04-15T02:25:43;7.26;73.91
69731;SHT31;56996;48.138;11.538;2023-04-15T02:28:20;7.25;73.84
69731;SHT31;56996;48.138;11.538;2023-04-15T02:30:47;7.26;73.83
69731;SHT31;56996;48.138;11.538;2023-04-15T02:33:17;7.25;73.80
69731;SHT31;56996;48.138;11.538;2023-04-15T02:35:43;7.24;73.88
69731;SHT31;56996;48.138;11.538;2023-04-15T02:38:10;7.22;73.81
69731;SHT31;56996;48.138;11.538;2023-04-15T02:40:36;7.20;73.80
69731;SHT31;56996;48.138;11.538;2023-04-15T02:43:02;7.17;73.93
69731;SHT31;56996;48.138;11.538;2023-04-15T02:45:30;7.17;73.71
69731;SHT31;56996;48.138;11.538;2023-04-15T02:47:59;7.16;73.72
69731;SHT31;56996;48.138;11.538;2023-04-15T02:50:28;7.11;73.81
69731;SHT31;56996;48.138;11.538;2023-04-15T02:52:55;7.07;73.90
69731;SHT31;56996;48.138;11.538;2023-04-15T02:55:21;7.07;73.97
69731;SHT31;56996;48.138;11.538;2023-04-15T02:57:47;7.06;74.00
69731;SHT31;56996;48.138;11.538;2023-04-15T03:00:13;7.04;73.91
69731;SHT31;56996;48.138;11.538;2023-04-15T03:02:41;7.06;73.84
69731;SHT31;56996;48.138;11.538;2023-04-15T03:05:11;7.09;73.91
69731;SHT31;56996;48.138;11.538;2023-04-15T03:07:41;7.13;73.88
69731;SHT31;56996;48.138;11.538;2023-04-15T03:10:08;7.15;73.72
69731;SHT31;56996;48.138;11.538;2023-04-15T03:12:35;7.15;73.62
69731;SHT31;56996;48.138;11.538;2023-04-15T03:15:01;7.16;73.78
69731;SHT31;56996;48.138;11.538;2023-04-15T03:17:33;7.18;73.71
69731;SHT31;56996;48.138;11.538;2023-04-15T03:20:03;7.21;73.60
69731;SHT31;56996;48.138;11.538;2023-04-15T03:22:31;7.22;73.57
69731;SHT31;56996;48.138;11.538;2023-04-15T03:24:57;7.20;73.39
69731;SHT31;56996;48.138;11.538;2023-04-15T03:27:24;7.18;73.58
69731;SHT31;56996;48.138;11.538;2023-04-15T03:29:51;7.23;73.56
69731;SHT31;56996;48.138;11.538;2023-04-15T03:32:18;7.23;73.40
69731;SHT31;56996;48.138;11.538;2023-04-15T03:34:44;7.22;73.38
69731;SHT31;56996;48.138;11.538;2023-04-15T03:37:10;7.22;73.24
69731;SHT31;56996;48.138;11.538;2023-04-15T03:39:36;7.22;73.13
69731;SHT31;56996;48.138;11.538;2023-04-15T03:42:02;7.24;73.13
69731;SHT31;56996;48.138;11.538;2023-04-15T03:44:28;7.25;73.09
69731;SHT31;56996;48.138;11.538;2023-04-15T03:46:55;7.24;72.97
69731;SHT31;56996;48.138;11.538;2023-04-15T03:49:21;7.25;72.89
69731;SHT31;56996;48.138;11.538;2023-04-15T03:51:47;7.28;72.92
69731;SHT31;56996;48.138;11.538;2023-04-15T03:54:13;7.29;72.73
69731;SHT31;56996;48.138;11.538;2023-04-15T03:56:39;7.30;72.62
69731;SHT31;56996;48.138;11.538;2023-04-15T03:59:05;7.28;72.50
69731;SHT31;56996;48.138;11.538;2023-04-15T04:01:31;7.26;72.52
69731;SHT31;56996;48.138;11.538;2023-04-15T04:03:57;7.28;72.68
69731;SHT31;56996;48.138;11.538;2023-04-15T04:06:23;7.29;72.59
69731;SHT31;56996;48.138;11.538;2023-04-15T04:08:49;7.31;72.53
69731;SHT31;56996;48.138;11.538;2023-04-15T04:11:15;7.32;72.40
69731;SHT31;56996;48.138;11.538;2023-04-15T04:13:41;7.33;72.36
69731;SHT31;56996;48.138;11.538;2023-04-15T04:16:07;7.34;72.21
69731;SHT31;56996;48.138;11.538;2023-04-15T04:18:33;7.34;72.13
69731;SHT31;56996;48.138;11.538;2023-04-15T04:20:59;7.30;72.12
69731;SHT31;56996;48.138;11.538;2023-04-15T04:23:26;7.31;72.06
69731;SHT31;56996;48.138;11.538;2023-04-15T04:25:52;7.31;71.99
69731;SHT31;56996;48.138;11.538;2023-04-15T04:28:18;7.29;71.98
69731;SHT31;56996;48.138;11.538;2023-04-15T04:30:43;7.28;71.81
69731;SHT31;56996;48.138;11.538;2023-04-15T04:33:10;7.26;71.84
69731;SHT31;56996;48.138;11.538;2023-04-15T04:35:36;7.23;71.99
69731;SHT31;56996;48.138;11.538;2023-04-15T04:38:02;7.23;71.96
69731;SHT31;56996;48.138;11.538;2023-04-15T04:40:29;7.21;71.75
69731;SHT31;56996;48.138;11.538;2023-04-15T04:42:55;7.21;71.67
69731;SHT31;56996;48.138;11.538;2023-04-15T04:45:21;7.20;71.50
69731;SHT31;56996;48.138;11.538;2023-04-15T04:47:47;7.18;71.37
69731;SHT31;56996;48.138;11.538;2023-04-15T04:50:13;7.20;71.38
69731;SHT31;56996;48.138;11.538;2023-04-15T04:52:39;7.21;71.33
69731;SHT31;56996;48.138;11.538;2023-04-15T04:55:05;7.20;71.18
69731;SHT31;56996;48.138;11.538;2023-04-15T04:57:33;7.19;71.19
69731;SHT31;56996;48.138;11.538;2023-04-15T05:00:04;7.20;71.22
69731;SHT31;56996;48.138;11.538;2023-04-15T05:02:33;7.21;71.18
69731;SHT31;56996;48.138;11.538;2023-04-15T05:05:00;7.23;71.09
69731;SHT31;56996;48.138;11.538;2023-04-15T05:07:26;7.28;70.93
69731;SHT31;56996;48.138;11.538;2023-04-15T05:09:52;7.33;70.82
69731;SHT31;56996;48.138;11.538;2023-04-15T05:12:18;7.36;70.62
69731;SHT31;56996;48.138;11.538;2023-04-15T05:14:43;7.37;70.45
69731;SHT31;56996;48.138;11.538;2023-04-15T05:17:11;7.36;70.22
69731;SHT31;56996;48.138;11.538;2023-04-15T05:19:37;7.33;70.33
69731;SHT31;56996;48.138;11.538;2023-04-15T05:22:03;7.34;70.13
69731;SHT31;56996;48.138;11.538;2023-04-15T05:24:29;7.34;69.78
69731;SHT31;56996;48.138;11.538;2023-04-15T05:26:55;7.36;69.72
69731;SHT31;56996;48.138;11.538;2023-04-15T05:29:21;7.39;69.50
69731;SHT31;56996;48.138;11.538;2023-04-15T05:31:47;7.37;69.40
69731;SHT31;56996;48.138;11.538;2023-04-15T05:34:13;7.39;69.26
69731;SHT31;56996;48.138;11.538;2023-04-15T05:36:41;7.41;69.01
69731;SHT31;56996;48.138;11.538;2023-04-15T05:39:07;7.39;68.89
69731;SHT31;56996;48.138;11.538;2023-04-15T05:41:33;7.41;68.88
69731;SHT31;56996;48.138;11.538;2023-04-15T05:43:59;7.45;68.66
69731;SHT31;56996;48.138;11.538;2023-04-15T05:46:25;7.48;68.50
69731;SHT31;56996;48.138;11.538;2023-04-15T05:48:52;7.47;68.29
69731;SHT31;56996;48.138;11.538;2023-04-15T05:51:20;7.47;68.23
69731;SHT31;56996;48.138;11.538;2023-04-15T05:53:46;7.51;67.90
69731;SHT31;56996;48.138;11.538;2023-04-15T05:56:12;7.53;67.67
69731;SHT31;56996;48.138;11.538;2023-04-15T05:58:38;7.57;67.49
69731;SHT31;56996;48.138;11.538;2023-04-15T06:01:04;7.61;67.33
69731;SHT31;56996;48.138;11.538;2023-04-15T06:03:31;7.63;67.13
69731;SHT31;56996;48.138;11.538;2023-04-15T06:05:57;7.66;66.84
69731;SHT31;56996;48.138;11.538;2023-04-15T06:08:23;7.67;66.81
69731;SHT31;56996;48.138;11.538;2023-04-15T06:10:49;7.69;66.79
69731;SHT31;56996;48.138;11.538;2023-04-15T06:13:15;7.75;66.43
69731;SHT31;56996;48.138;11.538;2023-04-15T06:15:41;7.76;66.08
69731;SHT31;56996;48.138;11.538;2023-04-15T06:18:07;7.79;66.05
69731;SHT31;56996;48.138;11.538;2023-04-15T06:20:33;7.82;65.86
69731;SHT31;56996;48.138;11.538;2023-04-15T06:22:59;7.83;65.80
69731;SHT31;56996;48.138;11.538;2023-04-15T06:25:25;7.84;65.64
69731;SHT31;56996;48.138;11.538;2023-04-15T06:27:51;7.82;65.56
69731;SHT31;56996;48.138;11.538;2023-04-15T06:30:17;7.86;65.40
69731;SHT31;56996;48.138;11.538;2023-04-15T06:32:43;7.90;65.22
69731;SHT31;56996;48.138;11.538;2023-04-15T06:35:09;7.96;65.02
69731;SHT31;56996;48.138;11.538;2023-04-15T06:37:36;8.02;64.95
69731;SHT31;56996;48.138;11.538;2023-04-15T06:40:02;8.05;64.99
69731;SHT31;56996;48.138;11.538;2023-04-15T06:42:29;8.07;64.63
69731;SHT31;56996;48.138;11.538;2023-04-15T06:44:56;8.11;64.74
69731;SHT31;56996;48.138;11.538;2023-04-15T06:47:22;8.20;64.39
69731;SHT31;56996;48.138;11.538;2023-04-15T06:49:47;8.30;64.21
69731;SHT31;56996;48.138;11.538;2023-04-15T06:52:13;8.36;63.81
69731;SHT31;56996;48.138;11.538;2023-04-15T06:54:41;8.40;63.45
69731;SHT31;56996;48.138;11.538;2023-04-15T06:57:08;8.41;63.15
69731;SHT31;56996;48.138;11.538;2023-04-15T06:59:34;8.43;63.15
69731;SHT31;56996;48.138;11.538;2023-04-15T07:02:00;8.45;63.27
69731;SHT31;56996;48.138;11.538;2023-04-15T07:04:27;8.55;63.07
69731;SHT31;56996;48.138;11.538;2023-04-15T07:06:53;8.64;62.78
69731;SHT31;56996;48.138;11.538;2023-04-15T07:09:23;8.71;62.40
69731;SHT31;56996;48.138;11.538;2023-04-15T07:11:49;8.76;61.62
69731;SHT31;56996;48.138;11.538;2023-04-15T07:14:16;8.86;61.87
69731;SHT31;56996;48.138;11.538;2023-04-15T07:16:42;9.09;61.64
69731;SHT31;56996;48.138;11.538;2023-04-15T07:19:08;9.30;60.92
69731;SHT31;56996;48.138;11.538;2023-04-15T07:21:34;9.54;60.57
69731;SHT31;56996;48.138;11.538;2023-04-15T07:23:59;9.75;59.99
69731;SHT31;56996;48.138;11.538;2023-04-15T07:26:25;9.91;59.38
69731;SHT31;56996;48.138;11.538;2023-04-15T07:28:51;10.11;59.15
69731;SHT31;56996;48.138;11.538;2023-04-15T07:31:17;10.35;58.58
69731;SHT31;56996;48.138;11.538;2023-04-15T07:33:43;10.53;58.23
69731;SHT31;56996;48.138;11.538;2023-04-15T07:36:10;10.72;57.56
69731;SHT31;56996;48.138;11.538;2023-04-15T07:38:35;10.85;57.06
69731;SHT31;56996;48.138;11.538;2023-04-15T07:41:02;10.95;56.50
69731;SHT31;56996;48.138;11.538;2023-04-15T07:43:28;11.01;56.24
69731;SHT31;56996;48.138;11.538;2023-04-15T07:45:54;10.98;54.74
69731;SHT31;56996;48.138;11.538;2023-04-15T07:48:20;10.97;55.66
69731;SHT31;56996;48.138;11.538;2023-04-15T07:50:46;11.20;55.39
69731;SHT31;56996;48.138;11.538;2023-04-15T07:53:13;11.50;54.35
69731;SHT31;56996;48.138;11.538;2023-04-15T07:55:39;11.72;53.70
69731;SHT31;56996;48.138;11.538;2023-04-15T07:58:05;12.10;53.55
69731;SHT31;56996;48.138;11.538;2023-04-15T08:00:31;12.51;52.81
69731;SHT31;56996;48.138;11.538;2023-04-15T08:02:56;13.01;51.93
69731;SHT31;56996;48.138;11.538;2023-04-15T08:05:24;13.40;50.33
69731;SHT31;56996;48.138;11.538;2023-04-15T08:07:50;13.78;50.31
69731;SHT31;56996;48.138;11.538;2023-04-15T08:10:16;14.24;49.23
69731;SHT31;56996;48.138;11.538;2023-04-15T08:12:42;14.66;47.42
69731;SHT31;56996;48.138;11.538;2023-04-15T08:15:08;14.65;46.80
69731;SHT31;56996;48.138;11.538;2023-04-15T08:17:35;14.81;45.76
69731;SHT31;56996;48.138;11.538;2023-04-15T08:20:01;14.90;45.13
69731;SHT31;56996;48.138;11.538;2023-04-15T08:22:28;14.98;45.56
69731;SHT31;56996;48.138;11.538;2023-04-15T08:24:54;15.08;45.50
69731;SHT31;56996;48.138;11.538;2023-04-15T08:27:20;15.23;45.63
69731;SHT31;56996;48.138;11.538;2023-04-15T08:29:46;15.40;45.37
69731;SHT31;56996;48.138;11.538;2023-04-15T08:32:12;15.69;45.42
69731;SHT31;56996;48.138;11.538;2023-04-15T08:34:38;15.93;44.89
69731;SHT31;56996;48.138;11.538;2023-04-15T08:37:04;16.01;44.69
69731;SHT31;56996;48.138;11.538;2023-04-15T08:39:31;16.11;44.47
69731;SHT31;56996;48.138;11.538;2023-04-15T08:42:00;16.00;43.67
69731;SHT31;56996;48.138;11.538;2023-04-15T08:44:28;15.66;44.29
69731;SHT31;56996;48.138;11.538;2023-04-15T08:47:01;15.52;44.39
69731;SHT31;56996;48.138;11.538;2023-04-15T08:49:31;15.31;44.04
69731;SHT31;56996;48.138;11.538;2023-04-15T08:51:57;14.88;43.75
69731;SHT31;56996;48.138;11.538;2023-04-15T08:54:25;14.41;45.06
69731;SHT31;56996;48.138;11.538;2023-04-15T08:56:52;14.25;45.62
69731;SHT31;56996;48.138;11.538;2023-04-15T08:59:20;14.12;45.48
69731;SHT31;56996;48.138;11.538;2023-04-15T09:01:47;14.02;45.99
69731;SHT31;56996;48.138;11.538;2023-04-15T09:04:15;13.92;46.22
69731;SHT31;56996;48.138;11.538;2023-04-15T09:06:42;13.84;46.31
69731;SHT31;56996;48.138;11.538;2023-04-15T09:09:08;13.73;46.53
69731;SHT31;56996;48.138;11.538;2023-04-15T09:11:34;13.71;46.37
69731;SHT31;56996;48.138;11.538;2023-04-15T09:14:00;13.53;46.46
69731;SHT31;56996;48.138;11.538;2023-04-15T09:16:26;13.32;46.73
69731;SHT31;56996;48.138;11.538;2023-04-15T09:18:52;13.32;47.25
69731;SHT31;56996;48.138;11.538;2023-04-15T09:21:18;13.41;46.89
69731;SHT31;56996;48.138;11.538;2023-04-15T09:23:58;13.39;46.46
69731;SHT31;56996;48.138;11.538;2023-04-15T09:26:33;13.38;46.06
69731;SHT31;56996;48.138;11.538;2023-04-15T09:29:09;13.23;46.66
69731;SHT31;56996;48.138;11.538;2023-04-15T09:31:39;13.09;45.92
69731;SHT31;56996;48.138;11.538;2023-04-15T09:34:07;12.88;46.60
69731;SHT31;56996;48.138;11.538;2023-04-15T09:39:11;12.84;47.85
69731;SHT31;56996;48.138;11.538;2023-04-15T09:41:38;13.06;47.51
69731;SHT31;56996;48.138;11.538;2023-04-15T09:44:05;13.05;47.02
69731;SHT31;56996;48.138;11.538;2023-04-15T09:46:41;13.12;47.24
69731;SHT31;56996;48.138;11.538;2023-04-15T09:49:09;13.15;47.64
69731;SHT31;56996;48.138;11.538;2023-04-15T09:51:36;13.36;47.69
69731;SHT31;56996;48.138;11.538;2023-04-15T09:54:03;13.46;47.06
69731;SHT31;56996;48.138;11.538;2023-04-15T09:56:33;13.28;46.59
69731;SHT31;56996;48.138;11.538;2023-04-15T09:59:07;13.15;46.42
69731;SHT31;56996;48.138;11.538;2023-04-15T10:01:34;12.96;47.05
69731;SHT31;56996;48.138;11.538;2023-04-15T10:04:02;12.81;47.23
69731;SHT31;56996;48.138;11.538;2023-04-15T10:06:30;12.68;47.62
69731;SHT31;56996;48.138;11.538;2023-04-15T10:08:57;12.59;47.30
69731;SHT31;56996;48.138;11.538;2023-04-15T10:11:24;12.61;47.99
69731;SHT31;56996;48.138;11.538;2023-04-15T10:13:56;12.70;47.58
69731;SHT31;56996;48.138;11.538;2023-04-15T10:16:23;12.72;47.82
69731;SHT31;56996;48.138;11.538;2023-04-15T10:18:56;12.82;47.61
69731;SHT31;56996;48.138;11.538;2023-04-15T10:21:26;12.76;46.78
69731;SHT31;56996;48.138;11.538;2023-04-15T10:23:53;12.56;47.20
69731;SHT31;56996;48.138;11.538;2023-04-15T10:26:19;12.60;47.87
69731;SHT31;56996;48.138;11.538;2023-04-15T10:28:46;12.70;47.51
69731;SHT31;56996;48.138;11.538;2023-04-15T10:31:13;12.61;47.64
69731;SHT31;56996;48.138;11.538;2023-04-15T10:33:40;12.53;47.48
69731;SHT31;56996;48.138;11.538;2023-04-15T10:36:08;12.44;47.87
69731;SHT31;56996;48.138;11.538;2023-04-15T10:38:36;12.40;48.06
69731;SHT31;56996;48.138;11.538;2023-04-15T10:41:22;12.41;48.00
69731;SHT31;56996;48.138;11.538;2023-04-15T10:43:58;12.42;48.10
69731;SHT31;56996;48.138;11.538;2023-04-15T10:46:42;12.30;47.69
69731;SHT31;56996;48.138;11.538;2023-04-15T10:49:14;12.18;48.26
69731;SHT31;56996;48.138;11.538;2023-04-15T10:51:44;12.29;48.45
69731;SHT31;56996;48.138;11.538;2023-04-15T10:54:25;12.48;48.47
69731;SHT31;56996;48.138;11.538;2023-04-15T10:59:30;12.68;47.44
69731;SHT31;56996;48.138;11.538;2023-04-15T11:02:17;12.52;47.85
69731;SHT31;56996;48.138;11.538;2023-04-15T11:04:53;12.44;48.31
69731;SHT31;56996;48.138;11.538;2023-04-15T11:12:56;12.33;48.38
69731;SHT31;56996;48.138;11.538;2023-04-15T11:15:40;12.33;48.45
69731;SHT31;56996;48.138;11.538;2023-04-15T11:20:57;12.25;48.34
69731;SHT31;56996;48.138;11.538;2023-04-15T11:26:06;12.16;49.22
69731;SHT31;56996;48.138;11.538;2023-04-15T11:28:37;12.20;49.31
69731;SHT31;56996;48.138;11.538;2023-04-15T11:31:12;12.10;49.38
69731;SHT31;56996;48.138;11.538;2023-04-15T11:33:57;12.11;49.94
69731;SHT31;56996;48.138;11.538;2023-04-15T11:36:26;12.18;50.34
69731;SHT31;56996;48.138;11.538;2023-04-15T11:38:54;12.24;50.64
69731;SHT31;56996;48.138;11.538;2023-04-15T11:41:22;12.11;50.63
69731;SHT31;56996;48.138;11.538;2023-04-15T11:43:49;12.00;51.04
69731;SHT31;56996;48.138;11.538;2023-04-15T11:46:17;11.90;51.25
69731;SHT31;56996;48.138;11.538;2023-04-15T11:48:44;11.90;51.29
69731;SHT31;56996;48.138;11.538;2023-04-15T11:51:12;11.87;50.97
69731;SHT31;56996;48.138;11.538;2023-04-15T11:53:40;11.80;51.09
69731;SHT31;56996;48.138;11.538;2023-04-15T11:56:17;11.79;51.16
69731;SHT31;56996;48.138;11.538;2023-04-15T11:58:52;11.69;51.24
69731;SHT31;56996;48.138;11.538;2023-04-15T12:01:39;11.62;51.33
69731;SHT31;56996;48.138;11.538;2023-04-15T12:04:15;11.64;51.57
69731;SHT31;56996;48.138;11.538;2023-04-15T12:06:49;11.62;50.96
69731;SHT31;56996;48.138;11.538;2023-04-15T12:09:15;11.52;50.94
69731;SHT31;56996;48.138;11.538;2023-04-15T12:14:20;11.54;51.16
69731;SHT31;56996;48.138;11.538;2023-04-15T12:16:51;11.70;50.87
69731;SHT31;56996;48.138;11.538;2023-04-15T12:19:36;11.78;50.52
69731;SHT31;56996;48.138;11.538;2023-04-15T12:22:07;11.83;50.10
69731;SHT31;56996;48.138;11.538;2023-04-15T12:24:36;11.79;49.55
69731;SHT31;56996;48.138;11.538;2023-04-15T12:27:07;11.67;49.85
69731;SHT31;56996;48.138;11.538;2023-04-15T12:29:36;11.77;50.24
69731;SHT31;56996;48.138;11.538;2023-04-15T12:34:39;12.00;50.15
69731;SHT31;56996;48.138;11.538;2023-04-15T12:37:07;12.10;49.83
69731;SHT31;56996;48.138;11.538;2023-04-15T12:39:37;12.10;49.43
69731;SHT31;56996;48.138;11.538;2023-04-15T12:42:05;12.09;48.81
69731;SHT31;56996;48.138;11.538;2023-04-15T12:44:33;12.05;47.26
69731;SHT31;56996;48.138;11.538;2023-04-15T12:47:01;12.02;47.99
69731;SHT31;56996;48.138;11.538;2023-04-15T12:49:28;12.06;47.19
69731;SHT31;56996;48.138;11.538;2023-04-15T12:51:56;12.05;47.24
69731;SHT31;56996;48.138;11.538;2023-04-15T12:54:27;12.06;46.12
69731;SHT31;56996;48.138;11.538;2023-04-15T12:56:54;11.96;45.54
69731;SHT31;56996;48.138;11.538;2023-04-15T12:59:21;11.86;45.72
69731;SHT31;56996;48.138;11.538;2023-04-15T13:01:48;11.77;45.93
69731;SHT31;56996;48.138;11.538;2023-04-15T13:04:16;11.77;46.11
69731;SHT31;56996;48.138;11.538;2023-04-15T13:06:44;11.79;45.73
69731;SHT31;56996;48.138;11.538;2023-04-15T13:09:10;11.72;45.44
69731;SHT31;56996;48.138;11.538;2023-04-15T13:11:36;11.63;45.85
69731;SHT31;56996;48.138;11.538;2023-04-15T13:14:04;11.56;45.38
69731;SHT31;56996;48.138;11.538;2023-04-15T13:16:33;11.46;44.86
69731;SHT31;56996;48.138;11.538;2023-04-15T13:18:59;11.34;44.43
69731;SHT31;56996;48.138;11.538;2023-04-15T13:21:27;11.23;44.84
69731;SHT31;56996;48.138;11.538;2023-04-15T13:23:54;11.18;45.34
69731;SHT31;56996;48.138;11.538;2023-04-15T13:26:20;11.19;45.81
69731;SHT31;56996;48.138;11.538;2023-04-15T13:28:46;11.18;46.13
69731;SHT31;56996;48.138;11.538;2023-04-15T13:31:12;11.18;46.34
69731;SHT31;56996;48.138;11.538;2023-04-15T13:33:38;11.17;46.74
69731;SHT31;56996;48.138;11.538;2023-04-15T13:36:05;11.18;47.02
69731;SHT31;56996;48.138;11.538;2023-04-15T13:38:31;11.25;47.32
69731;SHT31;56996;48.138;11.538;2023-04-15T13:40:57;11.27;47.65
69731;SHT31;56996;48.138;11.538;2023-04-15T13:43:23;11.26;48.11
69731;SHT31;56996;48.138;11.538;2023-04-15T13:45:49;11.30;48.58
69731;SHT31;56996;48.138;11.538;2023-04-15T13:48:15;11.29;48.79
69731;SHT31;56996;48.138;11.538;2023-04-15T13:50:41;11.14;49.55
69731;SHT31;56996;48.138;11.538;2023-04-15T13:53:10;11.04;50.14
69731;SHT31;56996;48.138;11.538;2023-04-15T13:55:37;10.96;50.70
69731;SHT31;56996;48.138;11.538;2023-04-15T13:58:06;10.94;51.51
69731;SHT31;56996;48.138;11.538;2023-04-15T14:00:33;10.92;52.07
69731;SHT31;56996;48.138;11.538;2023-04-15T14:02:59;10.92;52.00
69731;SHT31;56996;48.138;11.538;2023-04-15T14:05:26;10.96;52.57
69731;SHT31;56996;48.138;11.538;2023-04-15T14:07:52;10.94;51.88
69731;SHT31;56996;48.138;11.538;2023-04-15T14:10:18;10.85;51.65
69731;SHT31;56996;48.138;11.538;2023-04-15T14:12:44;10.81;51.93
69731;SHT31;56996;48.138;11.538;2023-04-15T14:15:10;10.87;52.12
69731;SHT31;56996;48.138;11.538;2023-04-15T14:17:36;10.92;51.85
69731;SHT31;56996;48.138;11.538;2023-04-15T14:20:02;10.93;51.75
69731;SHT31;56996;48.138;11.538;2023-04-15T14:22:28;11.04;51.58
69731;SHT31;56996;48.138;11.538;2023-04-15T14:24:54;11.12;51.13
69731;SHT31;56996;48.138;11.538;2023-04-15T14:27:20;11.14;50.03
69731;SHT31;56996;48.138;11.538;2023-04-15T14:29:47;11.09;49.49
69731;SHT31;56996;48.138;11.538;2023-04-15T14:32:13;11.14;49.51
69731;SHT31;56996;48.138;11.538;2023-04-15T14:34:42;11.14;48.72
69731;SHT31;56996;48.138;11.538;2023-04-15T14:37:08;11.15;48.86
69731;SHT31;56996;48.138;11.538;2023-04-15T14:39:34;11.10;48.73
69731;SHT31;56996;48.138;11.538;2023-04-15T14:42:00;11.05;49.02
69731;SHT31;56996;48.138;11.538;2023-04-15T14:44:26;11.07;49.12
69731;SHT31;56996;48.138;11.538;2023-04-15T14:46:52;11.09;49.10
69731;SHT31;56996;48.138;11.538;2023-04-15T14:49:19;11.04;49.06
69731;SHT31;56996;48.138;11.538;2023-04-15T14:51:45;10.98;49.31
69731;SHT31;56996;48.138;11.538;2023-04-15T14:54:11;10.91;49.67
69731;SHT31;56996;48.138;11.538;2023-04-15T14:56:37;10.90;50.12
69731;SHT31;56996;48.138;11.538;2023-04-15T14:59:03;10.97;50.43
69731;SHT31;56996;48.138;11.538;2023-04-15T15:01:29;11.07;50.40
69731;SHT31;56996;48.138;11.538;2023-04-15T15:03:55;11.08;50.51
69731;SHT31;56996;48.138;11.538;2023-04-15T15:06:21;11.01;51.42
69731;SHT31;56996;48.138;11.538;2023-04-15T15:08:47;10.82;52.98
69731;SHT31;56996;48.138;11.538;2023-04-15T15:11:14;10.66;54.05
69731;SHT31;56996;48.138;11.538;2023-04-15T15:13:41;10.55;55.01
69731;SHT31;56996;48.138;11.538;2023-04-15T15:16:07;10.48;56.08
69731;SHT31;56996;48.138;11.538;2023-04-15T15:18:34;10.40;56.63
69731;SHT31;56996;48.138;11.538;2023-04-15T15:21:00;10.30;57.68
69731;SHT31;56996;48.138;11.538;2023-04-15T15:23:26;10.20;58.27
69731;SHT31;56996;48.138;11.538;2023-04-15T15:25:52;10.08;58.87
69731;SHT31;56996;48.138;11.538;2023-04-15T15:28:18;9.91;59.65
69731;SHT31;56996;48.138;11.538;2023-04-15T15:30:46;9.75;60.11
69731;SHT31;56996;48.138;11.538;2023-04-15T15:33:12;9.63;60.47
69731;SHT31;56996;48.138;11.538;2023-04-15T15:35:38;9.56;60.77
69731;SHT31;56996;48.138;11.538;2023-04-15T15:38:05;9.53;61.07
69731;SHT31;56996;48.138;11.538;2023-04-15T15:40:31;9.50;61.14
69731;SHT31;56996;48.138;11.538;2023-04-15T15:42:57;9.52;61.30
69731;SHT31;56996;48.138;11.538;2023-04-15T15:45:23;9.51;61.44